Time;durP1;ratioP1;P1;durP2;ratioP2;P2;SDS_P1;SDS_P2;PMS_P1;PMS_P2;Temp;Humidity;BMP_temperature;BMP_pressure;BME280_temperature;BME280_humidity;BME280_pressure;Samples;Min_cycle;Max_cycle;Signal;HPM_P1;HPM_P2
2023/05/25 00:01:43;;;;;;;12.07;6.40;;;11.40;91.20;;;;;;5049740;28;20412;-75
2023/05/25 00:04:15;;;;;;;12.07;7.00;;;11.30;91.30;;;;;;5043098;28;20856;-76
2023/05/25 00:06:44;;;;;;;10.60;7.32;;;11.30;91.40;;;;;;5057947;28;20430;-73
2023/05/25 00:09:11;;;;;;;10.52;6.30;;;11.30;91.40;;;;;;5059239;28;20441;-73
2023/05/25 00:11:38;;;;;;;11.77;7.00;;;11.20;91.70;;;;;;5063332;28;20554;-73
2023/05/25 00:14:05;;;;;;;11.15;7.65;;;11.20;91.90;;;;;;5043901;28;20930;-73
2023/05/25 00:16:36;;;;;;;12.57;7.18;;;11.20;91.90;;;;;;5067858;28;20524;-75
2023/05/25 00:19:05;;;;;;;10.40;7.00;;;11.20;92.10;;;;;;5051728;28;20555;-73
2023/05/25 00:21:36;;;;;;;11.10;6.90;;;11.20;92.00;;;;;;5056869;28;20447;-72
2023/05/25 00:24:03;;;;;;;10.90;6.60;;;11.20;91.90;;;;;;5047350;28;20449;-73
2023/05/25 00:26:30;;;;;;;15.57;9.13;;;11.10;91.80;;;;;;5058227;28;20427;-73
2023/05/25 00:28:59;;;;;;;9.00;7.17;;;11.10;92.00;;;;;;5055642;28;20409;-73
2023/05/25 00:31:26;;;;;;;10.88;7.05;;;11.10;92.20;;;;;;5057749;28;20908;-73
2023/05/25 00:33:52;;;;;;;9.80;6.78;;;11.00;92.20;;;;;;5061702;28;20476;-72
2023/05/25 00:36:20;;;;;;;12.75;7.22;;;11.00;92.40;;;;;;5061333;28;20451;-72
2023/05/25 00:38:47;;;;;;;11.30;7.35;;;11.00;92.50;;;;;;5064303;28;20912;-73
2023/05/25 00:41:16;;;;;;;11.68;7.60;;;11.00;92.50;;;;;;5066039;28;20411;-75
2023/05/25 00:43:45;;;;;;;13.38;7.72;;;11.00;92.70;;;;;;5060221;28;20943;-76
2023/05/25 00:46:14;;;;;;;12.57;7.57;;;11.00;92.90;;;;;;5063810;28;20445;-76
2023/05/25 00:48:41;;;;;;;13.43;7.00;;;10.90;93.00;;;;;;5056294;28;20424;-73
2023/05/25 00:51:10;;;;;;;9.88;7.28;;;10.90;92.90;;;;;;5062611;28;21043;-73
2023/05/25 00:53:38;;;;;;;10.90;7.43;;;10.90;92.90;;;;;;5065847;28;20442;-73
2023/05/25 00:56:10;;;;;;;11.55;7.75;;;10.90;93.00;;;;;;5059325;28;20423;-73
2023/05/25 00:58:40;;;;;;;11.55;7.90;;;10.90;93.20;;;;;;5045379;28;20417;-73
2023/05/25 01:01:11;;;;;;;10.05;7.45;;;10.80;93.30;;;;;;5061986;28;20900;-73
2023/05/25 01:03:39;;;;;;;10.38;7.75;;;10.80;93.30;;;;;;5066342;28;20415;-73
2023/05/25 01:06:10;;;;;;;9.90;7.50;;;10.70;93.50;;;;;;5053609;28;20417;-73
2023/05/25 01:08:42;;;;;;;11.68;7.32;;;10.70;93.60;;;;;;5060172;28;20435;-73
2023/05/25 01:11:11;;;;;;;12.35;7.40;;;10.60;93.50;;;;;;5056946;28;20488;-72
2023/05/25 01:13:40;;;;;;;14.63;7.65;;;10.60;93.70;;;;;;5066352;28;20415;-73
2023/05/25 01:16:09;;;;;;;13.48;7.63;;;10.60;93.90;;;;;;5049582;28;20432;-73
2023/05/25 01:18:36;;;;;;;11.27;7.30;;;10.60;94.10;;;;;;5046270;28;20437;-73
2023/05/25 01:21:12;;;;;;;13.40;7.22;;;10.60;94.10;;;;;;5058761;28;20421;-73
2023/05/25 01:23:45;;;;;;;10.77;7.00;;;10.50;94.00;;;;;;5055742;28;20431;-72
2023/05/25 01:26:16;;;;;;;11.35;6.97;;;10.50;93.90;;;;;;5066611;28;20680;-73
2023/05/25 01:28:46;;;;;;;11.00;7.57;;;10.50;94.00;;;;;;5051539;28;20438;-73
2023/05/25 01:31:15;;;;;;;9.10;6.50;;;10.40;93.80;;;;;;5053622;28;20702;-73
2023/05/25 01:33:43;;;;;;;13.27;7.40;;;10.40;94.10;;;;;;5044126;28;21414;-74
2023/05/25 01:36:11;;;;;;;12.25;8.00;;;10.30;94.20;;;;;;5056478;28;20469;-76
2023/05/25 01:38:38;;;;;;;14.95;7.80;;;10.30;94.50;;;;;;5058569;28;20424;-75
2023/05/25 01:41:05;;;;;;;9.65;7.22;;;10.30;94.70;;;;;;5044608;28;20506;-75
2023/05/25 01:43:31;;;;;;;11.98;7.18;;;10.30;94.80;;;;;;5044720;28;20465;-75
2023/05/25 01:46:09;;;;;;;11.68;8.10;;;10.30;95.00;;;;;;5045095;28;20413;-75
2023/05/25 01:48:45;;;;;;;9.50;7.03;;;10.30;95.00;;;;;;5047905;28;20436;-75
2023/05/25 01:51:19;;;;;;;11.25;6.85;;;10.30;94.90;;;;;;5073441;22;20443;-75
2023/05/25 01:53:52;;;;;;;11.70;7.10;;;10.30;94.90;;;;;;5068894;28;20407;-74
2023/05/25 01:56:22;;;;;;;12.07;7.70;;;10.20;95.00;;;;;;5072324;28;20427;-74
2023/05/25 01:58:50;;;;;;;11.00;8.13;;;10.20;95.10;;;;;;5064741;28;20457;-76
2023/05/25 02:01:18;;;;;;;11.98;7.72;;;10.10;95.40;;;;;;5063917;28;20434;-76
2023/05/25 02:03:47;;;;;;;13.43;8.48;;;10.10;95.60;;;;;;5071357;28;20423;-75
2023/05/25 02:06:16;;;;;;;10.85;8.13;;;10.10;95.90;;;;;;5068361;28;20814;-73
2023/05/25 02:08:44;;;;;;;11.95;7.60;;;10.00;96.40;;;;;;5071884;28;20442;-72
2023/05/25 02:11:13;;;;;;;12.02;7.80;;;10.10;96.60;;;;;;5071993;28;20416;-74
2023/05/25 02:13:40;;;;;;;10.27;7.38;;;10.10;96.90;;;;;;5074243;28;20440;-74
2023/05/25 02:16:07;;;;;;;13.48;7.82;;;10.10;97.10;;;;;;5074207;28;20424;-74
2023/05/25 02:18:34;;;;;;;10.88;8.13;;;10.10;96.90;;;;;;5077242;28;20789;-77
2023/05/25 02:21:01;;;;;;;11.18;8.20;;;10.10;96.90;;;;;;5067931;28;20442;-74
2023/05/25 02:23:30;;;;;;;13.38;7.70;;;10.00;96.80;;;;;;5071298;28;20415;-74
2023/05/25 02:25:56;;;;;;;11.40;8.20;;;10.00;97.10;;;;;;5053905;28;20429;-74
2023/05/25 02:28:23;;;;;;;14.27;8.03;;;10.00;97.30;;;;;;5051380;28;20420;-73
2023/05/25 02:30:50;;;;;;;11.07;8.52;;;9.90;97.40;;;;;;5066381;28;20894;-74
2023/05/25 02:33:17;;;;;;;11.63;8.18;;;9.90;97.40;;;;;;5058683;28;20417;-74
2023/05/25 02:35:44;;;;;;;14.85;8.10;;;9.90;97.40;;;;;;5066487;28;21028;-75
2023/05/25 02:38:11;;;;;;;12.77;8.10;;;9.80;97.40;;;;;;5062877;28;20428;-74
2023/05/25 02:40:39;;;;;;;14.75;8.25;;;9.90;97.60;;;;;;5065215;28;20427;-75
2023/05/25 02:43:06;;;;;;;11.60;8.30;;;9.90;97.60;;;;;;5062767;28;20460;-74
2023/05/25 02:45:32;;;;;;;14.13;8.65;;;9.90;97.70;;;;;;5065964;28;20426;-75
2023/05/25 02:47:59;;;;;;;13.13;7.28;;;9.90;97.40;;;;;;5063938;28;20431;-75
2023/05/25 02:50:26;;;;;;;11.20;8.20;;;9.80;97.30;;;;;;5066428;28;20409;-74
2023/05/25 02:52:53;;;;;;;12.15;7.95;;;9.80;97.50;;;;;;5070294;28;20435;-75
2023/05/25 02:55:20;;;;;;;12.65;8.30;;;9.80;97.70;;;;;;5082605;28;20488;-74
2023/05/25 02:57:48;;;;;;;10.50;8.25;;;9.80;97.70;;;;;;5075591;28;20411;-74
2023/05/25 03:00:16;;;;;;;11.63;8.15;;;9.80;98.00;;;;;;5069298;28;20476;-74
2023/05/25 03:02:45;;;;;;;11.07;8.35;;;9.70;98.10;;;;;;5061964;28;20444;-75
2023/05/25 03:05:12;;;;;;;11.45;8.10;;;9.70;98.30;;;;;;5069473;28;20544;-74
2023/05/25 03:07:39;;;;;;;11.90;7.60;;;9.70;98.30;;;;;;5062581;28;20433;-75
2023/05/25 03:10:07;;;;;;;11.07;7.97;;;9.70;98.60;;;;;;5068155;28;20439;-74
2023/05/25 03:12:34;;;;;;;10.95;8.43;;;9.70;98.80;;;;;;5068973;28;20419;-74
2023/05/25 03:15:02;;;;;;;12.23;8.52;;;9.70;98.90;;;;;;5068786;28;20447;-74
2023/05/25 03:17:29;;;;;;;13.55;8.82;;;9.60;98.70;;;;;;5066537;28;20432;-75
2023/05/25 03:19:55;;;;;;;12.88;9.25;;;9.60;99.10;;;;;;5065899;28;20420;-76
2023/05/25 03:22:22;;;;;;;11.65;8.77;;;9.60;99.10;;;;;;5053330;28;20427;-76
2023/05/25 03:24:49;;;;;;;12.82;8.60;;;9.60;99.40;;;;;;5066946;28;20759;-76
2023/05/25 03:27:15;;;;;;;12.75;9.48;;;9.60;99.40;;;;;;5068048;28;20419;-76
2023/05/25 03:29:42;;;;;;;13.27;9.00;;;9.60;99.40;;;;;;5067139;28;20838;-76
2023/05/25 03:32:10;;;;;;;10.75;8.93;;;9.60;99.30;;;;;;5063422;28;20418;-76
2023/05/25 03:34:37;;;;;;;13.55;9.25;;;9.60;99.00;;;;;;5048961;28;20776;-75
2023/05/25 03:37:04;;;;;;;13.70;9.27;;;9.60;99.10;;;;;;5061447;28;20432;-76
2023/05/25 03:39:30;;;;;;;15.30;10.25;;;9.50;99.10;;;;;;5063175;28;20415;-76
2023/05/25 03:41:57;;;;;;;12.82;9.45;;;9.50;99.30;;;;;;5067465;28;20799;-76
2023/05/25 03:44:24;;;;;;;13.05;9.38;;;9.50;99.30;;;;;;5061024;28;20440;-76
2023/05/25 03:46:51;;;;;;;13.88;9.55;;;9.60;99.30;;;;;;5068539;28;20414;-76
2023/05/25 03:49:19;;;;;;;14.57;10.02;;;9.50;99.00;;;;;;5068031;28;20499;-76
2023/05/25 03:51:46;;;;;;;11.60;9.32;;;9.60;99.20;;;;;;5060472;28;20457;-76
2023/05/25 03:54:13;;;;;;;16.15;10.57;;;9.60;99.20;;;;;;5063453;28;20432;-75
2023/05/25 03:56:39;;;;;;;15.13;10.43;;;9.60;99.20;;;;;;5067762;28;20427;-76
2023/05/25 03:59:06;;;;;;;18.52;10.90;;;9.60;99.10;;;;;;5067856;28;20420;-76
2023/05/25 04:01:36;;;;;;;15.32;10.38;;;9.60;99.20;;;;;;5067766;28;20426;-76
2023/05/25 04:04:03;;;;;;;17.83;10.77;;;9.70;99.10;;;;;;5061162;28;20452;-76
2023/05/25 04:06:32;;;;;;;12.05;10.10;;;9.60;98.90;;;;;;5066143;28;20404;-76
2023/05/25 04:09:00;;;;;;;15.33;10.40;;;9.60;98.80;;;;;;5070581;28;20419;-75
2023/05/25 04:11:28;;;;;;;11.25;9.98;;;9.60;98.80;;;;;;5072243;28;20514;-76
2023/05/25 04:13:54;;;;;;;12.52;9.60;;;9.60;98.90;;;;;;5071673;28;20419;-75
2023/05/25 04:16:21;;;;;;;16.13;9.82;;;9.60;99.10;;;;;;5064668;28;20429;-75
2023/05/25 04:18:48;;;;;;;12.27;9.45;;;9.50;99.10;;;;;;5064261;28;20427;-73
2023/05/25 04:21:15;;;;;;;13.75;10.48;;;9.50;99.30;;;;;;5071777;28;20425;-73
2023/05/25 04:23:43;;;;;;;14.02;10.70;;;9.50;99.90;;;;;;5069425;28;20461;-72
2023/05/25 04:26:10;;;;;;;14.30;10.88;;;9.60;99.70;;;;;;5072611;28;20774;-73
2023/05/25 04:28:39;;;;;;;16.45;10.65;;;9.60;99.80;;;;;;5073346;28;20415;-73
2023/05/25 04:31:06;;;;;;;14.65;10.60;;;9.60;99.80;;;;;;5074356;28;20506;-72
2023/05/25 04:33:33;;;;;;;13.63;10.30;;;9.70;99.90;;;;;;5062785;28;20452;-72
2023/05/25 04:35:59;;;;;;;13.10;10.10;;;9.70;99.90;;;;;;5061780;28;20433;-72
2023/05/25 04:38:26;;;;;;;12.48;10.48;;;9.70;99.90;;;;;;5057219;28;20433;-71
2023/05/25 04:40:56;;;;;;;12.20;9.80;;;9.70;99.90;;;;;;5061241;28;20435;-71
2023/05/25 04:43:24;;;;;;;13.70;10.35;;;9.80;99.90;;;;;;5060670;28;20518;-71
2023/05/25 04:45:51;;;;;;;17.30;10.65;;;9.80;99.90;;;;;;5059112;28;20433;-72
2023/05/25 04:48:18;;;;;;;15.30;9.63;;;9.80;99.90;;;;;;5070117;28;20416;-72
2023/05/25 04:50:45;;;;;;;13.37;9.47;;;9.80;99.90;;;;;;5070257;28;20426;-72
2023/05/25 04:53:11;;;;;;;14.32;9.75;;;9.80;99.90;;;;;;5065767;28;20432;-73
2023/05/25 04:55:38;;;;;;;14.68;10.02;;;9.90;99.90;;;;;;5071279;28;20789;-73
2023/05/25 04:58:06;;;;;;;14.65;10.05;;;9.90;99.90;;;;;;5071302;28;20442;-74
2023/05/25 05:00:33;;;;;;;14.43;10.60;;;10.00;99.90;;;;;;5065555;28;20431;-73
2023/05/25 05:03:00;;;;;;;14.55;9.55;;;10.00;99.80;;;;;;5071010;28;20457;-73
2023/05/25 05:05:27;;;;;;;12.98;9.88;;;10.00;99.70;;;;;;5063707;28;20904;-72
2023/05/25 05:07:54;;;;;;;12.18;10.20;;;10.00;99.60;;;;;;5060113;28;20425;-73
2023/05/25 05:10:21;;;;;;;12.70;9.60;;;10.00;99.80;;;;;;5064899;28;20483;-72
2023/05/25 05:12:48;;;;;;;12.20;9.38;;;10.10;99.90;;;;;;5070653;28;20415;-71
2023/05/25 05:15:16;;;;;;;12.82;9.75;;;10.10;99.80;;;;;;5065962;28;20942;-72
2023/05/25 05:17:42;;;;;;;13.55;9.88;;;10.20;99.70;;;;;;5066703;28;20774;-71
2023/05/25 05:20:10;;;;;;;15.75;9.32;;;10.20;99.60;;;;;;5063753;28;20431;-71
2023/05/25 05:22:37;;;;;;;13.98;9.80;;;10.20;99.60;;;;;;5064040;28;20432;-71
2023/05/25 05:25:05;;;;;;;13.25;9.60;;;10.20;99.40;;;;;;5065115;28;20925;-71
2023/05/25 05:27:31;;;;;;;12.80;9.65;;;10.30;99.30;;;;;;5056394;28;20718;-71
2023/05/25 05:29:58;;;;;;;11.27;9.77;;;10.30;99.50;;;;;;5069084;28;20491;-71
2023/05/25 05:32:26;;;;;;;13.60;10.10;;;10.40;99.50;;;;;;5056574;28;20804;-71
2023/05/25 05:34:53;;;;;;;12.77;9.45;;;10.40;99.40;;;;;;5061174;28;20433;-70
2023/05/25 05:37:19;;;;;;;13.90;9.30;;;10.40;99.30;;;;;;5056227;28;20946;-70
2023/05/25 05:39:46;;;;;;;12.48;9.20;;;10.50;99.20;;;;;;5064370;28;20419;-70
2023/05/25 05:42:13;;;;;;;14.43;10.75;;;10.50;99.20;;;;;;5069743;28;20412;-70
2023/05/25 05:44:40;;;;;;;15.10;10.57;;;10.60;99.20;;;;;;5063216;28;20430;-72
2023/05/25 05:47:06;;;;;;;14.55;10.73;;;10.60;99.20;;;;;;5056548;28;20425;-70
2023/05/25 05:49:36;;;;;;;13.93;10.55;;;10.70;99.20;;;;;;5061754;28;20427;-70
2023/05/25 05:52:04;;;;;;;13.13;10.40;;;10.70;99.30;;;;;;5057707;28;20506;-71
2023/05/25 05:54:31;;;;;;;14.30;11.10;;;10.80;98.80;;;;;;5073279;28;20407;-69
2023/05/25 05:56:57;;;;;;;13.53;10.43;;;10.90;98.60;;;;;;5064417;28;20503;-71
2023/05/25 05:59:24;;;;;;;12.00;10.27;;;10.90;98.50;;;;;;5065677;28;20427;-70
2023/05/25 06:01:51;;;;;;;15.90;11.55;;;11.00;98.10;;;;;;5060123;28;20468;-71
2023/05/25 06:04:19;;;;;;;14.60;10.82;;;11.10;98.10;;;;;;5059927;28;20429;-70
2023/05/25 06:06:47;;;;;;;13.00;10.55;;;11.10;98.40;;;;;;5055388;28;20434;-70
2023/05/25 06:09:13;;;;;;;17.45;12.00;;;11.20;98.00;;;;;;5059716;28;20427;-69
2023/05/25 06:11:40;;;;;;;14.75;10.85;;;11.30;97.80;;;;;;5061467;28;20437;-70
2023/05/25 06:14:07;;;;;;;13.70;11.03;;;11.30;97.60;;;;;;5070848;28;20423;-70
2023/05/25 06:16:35;;;;;;;16.07;12.40;;;11.40;97.50;;;;;;5066078;28;20512;-69
2023/05/25 06:19:02;;;;;;;15.23;11.43;;;11.40;97.40;;;;;;5062252;28;20432;-69
2023/05/25 06:21:28;;;;;;;13.70;11.80;;;11.50;97.20;;;;;;5064083;28;20431;-70
2023/05/25 06:23:57;;;;;;;13.55;11.05;;;11.60;97.10;;;;;;5067819;28;20510;-70
2023/05/25 06:26:24;;;;;;;14.32;10.60;;;11.70;97.00;;;;;;5069574;28;20473;-70
2023/05/25 06:28:51;;;;;;;16.08;11.18;;;11.80;96.80;;;;;;5066146;28;20434;-70
2023/05/25 06:31:18;;;;;;;14.77;11.30;;;11.80;96.40;;;;;;5059577;28;20503;-71
2023/05/25 06:33:45;;;;;;;14.95;11.65;;;11.90;96.00;;;;;;5070392;28;20431;-71
2023/05/25 06:36:13;;;;;;;15.75;11.10;;;11.90;95.70;;;;;;5071336;28;20418;-71
2023/05/25 06:38:40;;;;;;;17.65;11.30;;;12.00;95.50;;;;;;5068235;28;20454;-71
2023/05/25 06:41:11;;;;;;;13.82;11.38;;;12.10;95.30;;;;;;5060550;28;20443;-71
2023/05/25 06:43:38;;;;;;;17.73;11.43;;;12.20;94.80;;;;;;5070198;28;20416;-70
2023/05/25 06:46:05;;;;;;;16.33;11.98;;;12.20;93.90;;;;;;5064687;28;20440;-71
2023/05/25 06:48:31;;;;;;;12.23;10.93;;;12.20;93.80;;;;;;5066136;28;21029;-71
2023/05/25 06:50:58;;;;;;;14.25;11.77;;;12.30;93.50;;;;;;5059017;28;20428;-71
2023/05/25 06:53:25;;;;;;;13.93;11.05;;;12.30;93.70;;;;;;5067951;28;20442;-70
2023/05/25 06:55:51;;;;;;;15.73;11.98;;;12.40;93.80;;;;;;5065503;28;20733;-72
2023/05/25 06:58:20;;;;;;;15.25;10.90;;;12.50;93.70;;;;;;5064505;28;20423;-72
2023/05/25 07:00:46;;;;;;;15.45;12.18;;;12.60;93.40;;;;;;5060271;28;20983;-71
2023/05/25 07:03:13;;;;;;;16.77;11.35;;;12.70;93.20;;;;;;5069976;28;20412;-70
2023/05/25 07:05:40;;;;;;;13.60;10.50;;;12.90;93.20;;;;;;5060124;28;20431;-71
2023/05/25 07:08:07;;;;;;;14.05;10.40;;;13.10;92.90;;;;;;5061512;28;20428;-69
2023/05/25 07:10:34;;;;;;;13.70;10.13;;;13.30;92.70;;;;;;5089473;28;20396;-70
2023/05/25 07:13:00;;;;;;;13.73;9.52;;;13.50;92.00;;;;;;5088579;28;20423;-71
2023/05/25 07:15:29;;;;;;;13.15;9.57;;;13.60;91.10;;;;;;5089465;28;20412;-71
2023/05/25 07:17:56;;;;;;;13.65;10.10;;;13.80;90.30;;;;;;5089901;28;20458;-71
2023/05/25 07:20:23;;;;;;;13.10;9.35;;;14.00;88.90;;;;;;5084626;28;20445;-71
2023/05/25 07:22:49;;;;;;;12.48;9.30;;;14.10;88.20;;;;;;5078612;28;20919;-71
2023/05/25 07:25:16;;;;;;;14.63;9.60;;;14.30;87.50;;;;;;5068259;28;20427;-71
2023/05/25 07:27:47;;;;;;;12.57;8.73;;;14.40;86.50;;;;;;5062578;28;20432;-72
2023/05/25 07:30:14;;;;;;;11.45;8.60;;;14.60;84.70;;;;;;5056846;28;20957;-72
2023/05/25 07:32:42;;;;;;;14.63;9.52;;;14.80;83.90;;;;;;5069651;28;20447;-72
2023/05/25 07:35:09;;;;;;;16.10;8.03;;;14.90;82.40;;;;;;5079194;28;20947;-72
2023/05/25 07:37:36;;;;;;;14.13;8.70;;;15.10;81.50;;;;;;5071306;28;20980;-72
2023/05/25 07:40:03;;;;;;;14.33;8.53;;;15.30;80.80;;;;;;5070952;28;20729;-72
2023/05/25 07:42:33;;;;;;;11.02;7.60;;;15.40;79.90;;;;;;5057344;28;20435;-71
2023/05/25 07:44:59;;;;;;;11.52;8.02;;;15.60;79.50;;;;;;5059335;28;20461;-70
2023/05/25 07:47:26;;;;;;;9.82;7.55;;;15.70;78.20;;;;;;5062043;28;20431;-71
2023/05/25 07:49:54;;;;;;;10.32;7.50;;;15.90;77.50;;;;;;5065960;28;20491;-71
2023/05/25 07:52:21;;;;;;;10.25;7.80;;;16.10;76.20;;;;;;5084013;22;20455;-72
2023/05/25 07:54:48;;;;;;;13.20;8.30;;;16.20;75.50;;;;;;5088402;28;20409;-71
2023/05/25 07:57:15;;;;;;;9.95;7.63;;;16.40;75.30;;;;;;5088650;28;20516;-71
2023/05/25 07:59:43;;;;;;;12.57;7.97;;;16.50;74.40;;;;;;5085666;28;20433;-71
2023/05/25 08:02:10;;;;;;;13.23;8.80;;;16.60;73.60;;;;;;5079645;28;20418;-70
2023/05/25 08:04:37;;;;;;;11.55;7.55;;;16.80;73.40;;;;;;5057563;28;20426;-70
2023/05/25 08:07:05;;;;;;;9.40;7.30;;;17.00;72.70;;;;;;5059826;28;20447;-71
2023/05/25 08:09:31;;;;;;;16.98;15.23;;;17.20;71.20;;;;;;5062494;28;20419;-71
2023/05/25 08:11:58;;;;;;;135.38;122.93;;;17.40;70.40;;;;;;5066920;28;20450;-72
2023/05/25 08:14:25;;;;;;;14.50;12.48;;;17.50;69.10;;;;;;5060417;28;20455;-72
2023/05/25 08:16:52;;;;;;;12.48;8.18;;;17.60;67.10;;;;;;5081597;28;20418;-72
2023/05/25 08:19:19;;;;;;;9.70;7.70;;;17.70;66.90;;;;;;5068076;28;20942;-76
2023/05/25 08:21:45;;;;;;;10.43;7.50;;;17.80;66.40;;;;;;5068948;28;20681;-74
2023/05/25 08:24:13;;;;;;;11.57;8.02;;;18.00;66.50;;;;;;5068529;28;20767;-74
2023/05/25 08:26:42;;;;;;;10.87;8.50;;;18.20;65.80;;;;;;5068626;28;20415;-74
2023/05/25 08:29:08;;;;;;;11.65;7.65;;;18.30;64.50;;;;;;5070321;28;20462;-72
2023/05/25 08:31:36;;;;;;;10.17;7.20;;;18.40;63.50;;;;;;5072046;28;20414;-72
2023/05/25 08:34:02;;;;;;;9.40;6.72;;;18.50;63.20;;;;;;5067275;28;20420;-72
2023/05/25 08:36:32;;;;;;;11.35;7.50;;;18.80;62.20;;;;;;5063086;28;20427;-73
2023/05/25 08:38:59;;;;;;;12.38;7.97;;;19.00;61.40;;;;;;5079743;28;20497;-73
2023/05/25 08:41:27;;;;;;;12.77;7.30;;;19.40;59.30;;;;;;5069519;28;20431;-73
2023/05/25 08:43:54;;;;;;;11.32;7.10;;;19.60;58.50;;;;;;5060727;28;20444;-72
2023/05/25 08:46:29;;;;;;;14.07;7.60;;;20.00;56.70;;;;;;5082116;28;20915;-73
2023/05/25 08:49:00;;;;;;;8.38;6.18;;;20.20;56.10;;;;;;5068319;28;20844;-72
2023/05/25 08:51:29;;;;;;;9.55;6.07;;;20.40;55.80;;;;;;5068001;28;20419;-72
2023/05/25 08:54:00;;;;;;;6.97;6.00;;;20.50;55.20;;;;;;5068182;28;20412;-73
2023/05/25 08:56:32;;;;;;;8.40;6.40;;;20.80;53.20;;;;;;5062783;28;20438;-73
2023/05/25 08:59:05;;;;;;;8.50;5.50;;;20.90;51.20;;;;;;5083632;28;20487;-73
2023/05/25 09:01:37;;;;;;;6.45;5.72;;;20.90;50.30;;;;;;5059896;28;20437;-72
2023/05/25 09:04:04;;;;;;;7.85;5.53;;;20.90;50.50;;;;;;5067546;28;20424;-74
2023/05/25 09:06:32;;;;;;;7.25;5.10;;;21.00;50.40;;;;;;5070858;28;20689;-72
2023/05/25 09:08:59;;;;;;;18.95;17.05;;;21.30;49.70;;;;;;5060631;28;20915;-71
2023/05/25 09:11:28;;;;;;;15.32;13.85;;;21.50;48.70;;;;;;5078111;28;20422;-74
2023/05/25 09:13:56;;;;;;;7.97;4.90;;;21.70;48.60;;;;;;5074655;28;20437;-74
2023/05/25 09:16:23;;;;;;;7.20;4.15;;;21.90;48.10;;;;;;5070019;28;20435;-65
2023/05/25 09:18:50;;;;;;;7.40;4.77;;;22.10;48.70;;;;;;5076162;28;20422;-65
2023/05/25 09:21:17;;;;;;;7.32;4.30;;;22.20;46.10;;;;;;5077086;28;20415;-65
2023/05/25 09:23:44;;;;;;;7.35;4.20;;;22.30;46.10;;;;;;5070594;28;20416;-65
2023/05/25 09:26:11;;;;;;;5.30;4.20;;;22.40;45.70;;;;;;5076242;28;20426;-66
2023/05/25 09:28:46;;;;;;;6.60;4.30;;;22.20;44.70;;;;;;5058393;28;20962;-66
2023/05/25 09:31:13;;;;;;;5.90;4.47;;;22.30;44.70;;;;;;5052223;28;20433;-67
2023/05/25 09:33:41;;;;;;;7.45;4.82;;;22.20;45.10;;;;;;5063801;28;20427;-65
2023/05/25 09:36:08;;;;;;;7.35;4.80;;;22.10;44.60;;;;;;5061341;28;20419;-67
2023/05/25 09:38:36;;;;;;;7.38;5.00;;;22.20;45.40;;;;;;5058676;28;20424;-70
2023/05/25 09:41:04;;;;;;;7.50;5.03;;;22.10;45.90;;;;;;5062699;28;20432;-67
2023/05/25 09:43:32;;;;;;;6.22;4.80;;;22.10;46.40;;;;;;5062017;28;20509;-67
2023/05/25 09:46:00;;;;;;;7.43;5.20;;;22.10;46.40;;;;;;5073046;28;20473;-67
2023/05/25 09:48:28;;;;;;;7.13;4.82;;;22.10;45.50;;;;;;5074437;28;20446;-68
2023/05/25 09:50:56;;;;;;;7.00;5.10;;;22.10;44.70;;;;;;5064299;28;20632;-67
2023/05/25 09:53:22;;;;;;;8.60;5.40;;;22.00;45.20;;;;;;5066392;28;20442;-67
2023/05/25 09:55:49;;;;;;;6.53;4.80;;;22.00;45.30;;;;;;5069884;28;20423;-66
2023/05/25 09:58:16;;;;;;;6.53;4.50;;;22.10;45.00;;;;;;5065141;28;20427;-68
2023/05/25 10:00:44;;;;;;;7.83;5.10;;;22.20;45.00;;;;;;5069156;28;20419;-69
2023/05/25 10:03:13;;;;;;;7.45;5.05;;;22.30;45.20;;;;;;5069651;28;20412;-69
2023/05/25 10:05:40;;;;;;;6.35;4.70;;;22.50;44.70;;;;;;5080006;28;20461;-69
2023/05/25 10:08:08;;;;;;;6.10;4.80;;;22.70;44.00;;;;;;5055925;28;20924;-66
2023/05/25 10:10:37;;;;;;;6.55;4.93;;;23.00;44.20;;;;;;5063271;28;20477;-66
2023/05/25 10:13:07;;;;;;;5.53;4.32;;;23.30;43.40;;;;;;5062714;28;20434;-66
2023/05/25 10:15:36;;;;;;;7.05;4.90;;;23.50;42.90;;;;;;5055449;28;20425;-66
2023/05/25 10:18:05;;;;;;;6.30;5.50;;;23.70;42.00;;;;;;5056205;28;20424;-66
2023/05/25 10:20:34;;;;;;;6.25;4.50;;;23.90;41.70;;;;;;5060013;28;20433;-66
2023/05/25 10:23:04;;;;;;;5.25;4.53;;;23.90;42.20;;;;;;5060417;28;20435;-66
2023/05/25 10:25:34;;;;;;;6.10;4.70;;;23.80;41.20;;;;;;5055038;28;20494;-66
2023/05/25 10:28:04;;;;;;;7.05;5.20;;;23.60;41.60;;;;;;5061358;28;20431;-66
2023/05/25 10:30:32;;;;;;;6.40;5.20;;;23.30;42.30;;;;;;5067477;28;20431;-66
2023/05/25 10:33:00;;;;;;;6.85;5.10;;;23.20;44.30;;;;;;5063853;28;20422;-66
2023/05/25 10:35:27;;;;;;;6.80;5.20;;;23.30;42.90;;;;;;5072981;28;20418;-66
2023/05/25 10:37:58;;;;;;;7.77;4.93;;;23.30;42.70;;;;;;5060094;28;20436;-67
2023/05/25 10:40:24;;;;;;;6.77;5.60;;;23.20;43.10;;;;;;5065128;28;20440;-67
2023/05/25 10:42:51;;;;;;;7.75;5.05;;;23.20;43.00;;;;;;5063199;28;20521;-66
2023/05/25 10:45:19;;;;;;;6.53;5.55;;;23.20;42.10;;;;;;5056429;28;20428;-66
2023/05/25 10:47:46;;;;;;;8.07;6.15;;;23.30;42.30;;;;;;5072336;28;20423;-66
2023/05/25 10:50:21;;;;;;;7.45;5.03;;;23.30;41.50;;;;;;5070379;28;20423;-66
2023/05/25 10:53:00;;;;;;;5.82;5.22;;;23.20;43.20;;;;;;5068117;28;20417;-66
2023/05/25 10:55:30;;;;;;;7.55;6.40;;;23.00;43.80;;;;;;5056645;28;20422;-69
2023/05/25 10:58:11;;;;;;;7.90;6.20;;;23.00;43.00;;;;;;5074210;28;20424;-68
2023/05/25 11:00:37;;;;;;;6.32;4.97;;;23.10;42.70;;;;;;5070043;28;20563;-66
2023/05/25 11:03:04;;;;;;;6.38;5.57;;;23.20;43.50;;;;;;5059888;28;20927;-70
2023/05/25 11:05:33;;;;;;;7.33;5.30;;;23.30;42.50;;;;;;5057520;28;20782;-71
2023/05/25 11:08:03;;;;;;;7.10;5.50;;;23.30;42.80;;;;;;5067304;28;20408;-67
2023/05/25 11:10:55;;;;;;;7.88;5.50;;;23.30;42.20;;;;;;5063185;28;20438;-69
2023/05/25 11:13:33;;;;;;;5.80;4.95;;;23.50;42.00;;;;;;5053502;28;20436;-69
2023/05/25 11:16:14;;;;;;;5.47;4.90;;;23.70;42.30;;;;;;5057052;28;20797;-70
2023/05/25 11:18:42;;;;;;;5.90;5.10;;;23.90;42.20;;;;;;5062710;28;20457;-70
2023/05/25 11:21:17;;;;;;;5.18;4.68;;;24.20;41.60;;;;;;5067476;28;20422;-69
2023/05/25 11:23:58;;;;;;;5.70;4.40;;;24.40;40.70;;;;;;5070609;28;20425;-69
2023/05/25 11:26:27;;;;;;;6.10;4.85;;;24.50;40.10;;;;;;5059658;28;20523;-68
2023/05/25 11:28:54;;;;;;;5.95;4.63;;;24.40;40.00;;;;;;5062891;28;20431;-68
2023/05/25 11:31:28;;;;;;;5.82;4.50;;;24.40;40.40;;;;;;5060200;28;20508;-69
2023/05/25 11:33:57;;;;;;;5.80;4.60;;;24.50;40.50;;;;;;5062183;28;20433;-69
2023/05/25 11:36:24;;;;;;;5.15;4.40;;;24.70;39.80;;;;;;5060493;28;20597;-69
2023/05/25 11:38:53;;;;;;;5.80;5.30;;;24.90;39.50;;;;;;5069748;28;20466;-69
2023/05/25 11:41:22;;;;;;;4.82;4.32;;;25.00;38.30;;;;;;5052169;28;20514;-67
2023/05/25 11:43:49;;;;;;;4.82;4.30;;;25.20;38.80;;;;;;5059450;28;20435;-68
2023/05/25 11:46:17;;;;;;;6.72;5.03;;;25.50;38.30;;;;;;5060293;28;20427;-68
2023/05/25 11:48:45;;;;;;;5.72;4.40;;;25.90;37.30;;;;;;5073448;28;20427;-69
2023/05/25 11:51:12;;;;;;;5.55;5.00;;;25.90;36.90;;;;;;5065544;28;20908;-69
2023/05/25 11:53:43;;;;;;;5.63;5.03;;;25.90;35.90;;;;;;5064509;28;20412;-68
2023/05/25 11:56:11;;;;;;;5.15;4.75;;;26.00;36.20;;;;;;5049598;28;20461;-69
2023/05/25 11:58:39;;;;;;;4.55;4.15;;;26.00;37.20;;;;;;5061547;28;20816;-66
2023/05/25 12:01:13;;;;;;;5.20;4.43;;;26.40;37.40;;;;;;5058949;28;20969;-67
2023/05/25 12:03:40;;;;;;;6.05;5.03;;;26.60;37.20;;;;;;5064578;28;20811;-66
2023/05/25 12:06:07;;;;;;;5.20;4.70;;;26.50;35.80;;;;;;5066081;28;20427;-66
2023/05/25 12:08:34;;;;;;;5.90;4.70;;;26.20;35.60;;;;;;5067004;28;20473;-66
2023/05/25 12:11:01;;;;;;;5.80;5.30;;;25.80;36.70;;;;;;5062027;28;20431;-66
2023/05/25 12:13:28;;;;;;;6.85;5.72;;;25.50;37.40;;;;;;5062058;28;20428;-67
2023/05/25 12:15:58;;;;;;;6.20;5.43;;;25.70;37.20;;;;;;5061742;28;20815;-67
2023/05/25 12:18:26;;;;;;;7.03;5.10;;;25.80;36.50;;;;;;5073378;28;20867;-68
2023/05/25 12:20:53;;;;;;;6.25;5.65;;;25.90;37.00;;;;;;5068022;28;20411;-68
2023/05/25 12:23:20;;;;;;;5.97;5.38;;;26.40;36.20;;;;;;5063079;28;20435;-68
2023/05/25 12:25:48;;;;;;;7.80;5.90;;;26.70;35.60;;;;;;5064030;28;20435;-68
2023/05/25 12:28:15;;;;;;;6.57;6.00;;;26.60;35.90;;;;;;5063398;28;20435;-67
2023/05/25 12:30:42;;;;;;;7.17;5.80;;;26.60;35.70;;;;;;5066410;28;20432;-68
2023/05/25 12:33:13;;;;;;;6.80;6.20;;;26.70;36.00;;;;;;5083199;28;20578;-69
2023/05/25 12:52:45;;;;;;;6.60;6.10;;;27.70;37.10;;;;;;5046654;28;20491;-66
2023/05/25 12:55:25;;;;;;;6.75;6.10;;;28.00;36.70;;;;;;5062232;28;20443;-66
2023/05/25 12:57:53;;;;;;;6.40;5.85;;;28.10;34.40;;;;;;5054333;28;20511;-67
2023/05/25 13:00:22;;;;;;;6.90;6.40;;;28.10;35.20;;;;;;5059233;28;20447;-65
2023/05/25 13:02:49;;;;;;;6.78;6.28;;;27.80;35.20;;;;;;5073310;28;20501;-68